createdAt,value
2018-06-27T00:04:52.247Z,20.09
2018-06-27T00:09:46.881Z,20.31
2018-06-27T00:14:41.496Z,20.15
2018-06-27T00:24:26.951Z,19.67
2018-06-27T00:29:21.578Z,19.40
2018-06-27T00:34:16.142Z,19.30
2018-06-27T00:39:11.051Z,19.15
2018-06-27T00:44:05.826Z,19.08
2018-06-27T00:49:00.375Z,19.09
2018-06-27T00:53:59.966Z,18.95
2018-06-27T00:58:54.686Z,18.93
2018-06-27T01:03:49.580Z,18.77
2018-06-27T01:08:44.174Z,18.86
2018-06-27T01:13:38.803Z,18.62
2018-06-27T01:18:33.378Z,18.72
2018-06-27T01:23:27.950Z,18.63
2018-06-27T01:28:22.575Z,18.53
2018-06-27T01:33:17.157Z,18.30
2018-06-27T01:38:11.718Z,18.32
2018-06-27T01:43:06.404Z,18.25
2018-06-27T01:48:00.988Z,17.97
2018-06-27T01:52:55.595Z,18.20
2018-06-27T01:57:50.135Z,17.89
2018-06-27T02:02:44.750Z,17.95
2018-06-27T02:07:39.318Z,17.86
2018-06-27T02:12:33.898Z,17.65
2018-06-27T02:17:28.470Z,17.66
2018-06-27T02:22:23.940Z,17.81
2018-06-27T02:27:18.498Z,17.60
2018-06-27T02:32:13.042Z,17.60
2018-06-27T02:37:07.615Z,17.41
2018-06-27T02:42:02.175Z,17.56
2018-06-27T02:46:56.787Z,17.48
2018-06-27T02:51:51.383Z,17.47
2018-06-27T02:56:46.015Z,17.24
2018-06-27T03:01:40.638Z,17.42
2018-06-27T03:06:35.235Z,17.29
2018-06-27T03:11:29.782Z,17.23
2018-06-27T03:16:24.348Z,16.95
2018-06-27T03:21:19.004Z,16.92
2018-06-27T03:26:13.564Z,16.91
2018-06-27T03:31:08.284Z,17.14
2018-06-27T03:36:02.875Z,16.93
2018-06-27T03:40:57.443Z,16.81
2018-06-27T03:45:52.016Z,16.85
2018-06-27T03:50:46.555Z,16.83
2018-06-27T03:55:41.169Z,17.03
2018-06-27T04:00:35.750Z,16.97
2018-06-27T04:05:30.329Z,16.87
2018-06-27T04:10:24.875Z,16.97
2018-06-27T04:15:19.458Z,16.97
2018-06-27T04:20:14.022Z,16.98
2018-06-27T04:25:08.638Z,17.15
2018-06-27T04:30:03.877Z,17.51
2018-06-27T04:34:59.442Z,17.85
2018-06-27T04:39:54.117Z,18.31
2018-06-27T04:44:48.693Z,18.80
2018-06-27T04:49:43.323Z,19.38
2018-06-27T04:54:37.858Z,19.89
2018-06-27T04:59:32.512Z,20.44
2018-06-27T05:04:27.120Z,21.27
2018-06-27T05:09:21.691Z,21.44
2018-06-27T05:14:16.294Z,21.48
2018-06-27T05:19:10.849Z,21.89
2018-06-27T05:24:05.663Z,21.42
2018-06-27T05:29:00.205Z,22.02
2018-06-27T05:33:54.816Z,21.94
2018-06-27T05:38:49.825Z,22.29
2018-06-27T05:43:44.442Z,22.33
2018-06-27T05:48:39.022Z,21.95
2018-06-27T05:53:33.567Z,20.99
2018-06-27T05:58:28.195Z,20.88
2018-06-27T06:03:22.755Z,20.98
2018-06-27T06:08:17.408Z,20.97
2018-06-27T06:13:12.027Z,20.77
2018-06-27T06:18:06.832Z,20.60
2018-06-27T06:23:01.397Z,20.36
2018-06-27T06:27:55.951Z,20.59
2018-06-27T06:32:50.518Z,20.66
2018-06-27T06:37:45.127Z,20.79
2018-06-27T06:42:39.749Z,20.63
2018-06-27T06:47:34.317Z,20.80
2018-06-27T06:52:28.974Z,21.34
2018-06-27T06:57:23.570Z,21.78
2018-06-27T07:02:18.234Z,21.70
2018-06-27T07:07:12.926Z,22.00
2018-06-27T07:12:07.621Z,22.05
2018-06-27T07:17:02.247Z,22.66
2018-06-27T07:21:56.853Z,22.79
2018-06-27T07:26:51.509Z,22.92
2018-06-27T07:31:46.455Z,22.78
2018-06-27T07:36:41.084Z,22.88
2018-06-27T07:41:35.828Z,22.92
2018-06-27T07:46:30.482Z,23.45
2018-06-27T07:51:25.078Z,23.48
2018-06-27T07:56:19.711Z,24.10
2018-06-27T08:01:14.294Z,23.90
2018-06-27T08:06:08.538Z,23.86
2018-06-27T08:11:03.116Z,24.77
2018-06-27T08:15:57.710Z,24.95
2018-06-27T08:20:52.310Z,23.99
2018-06-27T08:25:52.845Z,23.99
2018-06-27T08:30:47.549Z,24.89
2018-06-27T08:35:42.127Z,24.54
2018-06-27T08:40:36.686Z,25.05
2018-06-27T08:45:31.264Z,24.80
2018-06-27T08:50:25.825Z,24.82
2018-06-27T08:55:20.416Z,25.48
2018-06-27T09:00:15.108Z,25.19
2018-06-27T09:05:09.690Z,25.48
2018-06-27T09:10:04.319Z,25.60
2018-06-27T09:14:58.881Z,25.44
2018-06-27T09:19:53.545Z,25.95
2018-06-27T09:24:48.189Z,25.59
2018-06-27T09:29:42.818Z,26.05
2018-06-27T09:34:37.552Z,25.74
2018-06-27T09:39:32.095Z,25.59
2018-06-27T09:44:26.683Z,26.56
2018-06-27T09:49:21.287Z,26.31
2018-06-27T09:54:15.980Z,25.94
2018-06-27T09:59:10.622Z,26.68
2018-06-27T10:04:05.317Z,27.02
2018-06-27T10:08:59.923Z,27.12
2018-06-27T10:13:54.514Z,26.58
2018-06-27T10:18:49.195Z,26.72
2018-06-27T10:23:43.803Z,26.96
2018-06-27T10:28:38.995Z,26.87
2018-06-27T10:33:33.643Z,26.97
2018-06-27T10:38:28.239Z,26.93
2018-06-27T10:43:22.812Z,27.35
2018-06-27T10:48:17.483Z,27.77
2018-06-27T10:53:12.066Z,27.79
2018-06-27T10:58:06.760Z,27.41
2018-06-27T11:03:01.371Z,27.85
2018-06-27T11:07:55.948Z,28.25
2018-06-27T11:12:50.571Z,28.18
2018-06-27T11:17:45.190Z,28.87
2018-06-27T11:22:39.778Z,27.79
2018-06-27T11:27:34.348Z,27.67
2018-06-27T11:32:28.950Z,27.86
2018-06-27T11:37:23.589Z,28.32
2018-06-27T11:42:18.166Z,29.03
2018-06-27T11:47:12.788Z,29.50
2018-06-27T11:52:07.383Z,30.44
2018-06-27T11:57:01.999Z,28.86
2018-06-27T12:01:56.935Z,28.06
2018-06-27T12:06:51.578Z,28.65
2018-06-27T12:11:46.178Z,28.85
2018-06-27T12:16:40.462Z,27.36
2018-06-27T12:21:35.129Z,27.26
2018-06-27T12:26:29.819Z,27.43
2018-06-27T12:31:24.938Z,27.50
2018-06-27T12:36:19.651Z,27.74
2018-06-27T12:41:14.291Z,27.18
2018-06-27T12:46:08.959Z,27.52
2018-06-27T12:51:03.695Z,27.46
2018-06-27T12:55:58.280Z,27.65
2018-06-27T13:00:52.911Z,28.11
2018-06-27T13:05:47.554Z,27.53
2018-06-27T13:10:42.269Z,27.67
2018-06-27T13:15:36.883Z,27.77
2018-06-27T13:20:31.510Z,27.29
2018-06-27T13:25:26.125Z,26.79
2018-06-27T13:30:20.718Z,26.55
2018-06-27T13:35:15.382Z,26.42
2018-06-27T13:40:10.007Z,26.29
2018-06-27T13:45:04.852Z,26.42
2018-06-27T13:49:59.563Z,26.37
2018-06-27T13:54:57.219Z,26.47
2018-06-27T13:59:51.868Z,26.00
2018-06-27T14:04:46.515Z,25.78
2018-06-27T14:09:41.371Z,25.54
2018-06-27T14:14:36.014Z,25.43
2018-06-27T14:19:30.784Z,25.17
2018-06-27T14:24:25.572Z,25.62
2018-06-27T14:29:20.164Z,26.11
2018-06-27T14:34:14.797Z,25.93
2018-06-27T14:39:10.458Z,26.30
2018-06-27T14:44:05.211Z,25.76
2018-06-27T14:48:59.835Z,25.96
2018-06-27T14:53:54.440Z,25.81
2018-06-27T14:58:49.036Z,25.55
2018-06-27T15:03:43.776Z,25.57
2018-06-27T15:08:38.479Z,25.31
2018-06-27T15:13:33.093Z,25.24
2018-06-27T15:18:27.670Z,25.55
2018-06-27T15:23:22.328Z,25.83
2018-06-27T15:28:16.921Z,25.79
2018-06-27T15:33:11.531Z,25.78
2018-06-27T15:38:06.491Z,25.10
2018-06-27T15:43:01.354Z,25.05
2018-06-27T15:47:56.019Z,25.14
2018-06-27T15:52:50.708Z,25.16
2018-06-27T15:57:45.413Z,24.81
2018-06-27T16:02:40.011Z,24.63
2018-06-27T16:07:34.686Z,25.21
2018-06-27T16:12:29.402Z,24.88
2018-06-27T16:17:24.386Z,24.89
2018-06-27T16:22:18.788Z,25.10
2018-06-27T16:27:13.514Z,25.72
2018-06-27T16:32:08.133Z,26.40
2018-06-27T16:37:02.760Z,26.88
2018-06-27T16:41:57.458Z,26.19
2018-06-27T16:46:52.259Z,25.07
2018-06-27T16:51:46.934Z,24.92
2018-06-27T16:56:41.632Z,25.08
2018-06-27T17:01:36.291Z,25.33
2018-06-27T17:06:30.994Z,25.28
2018-06-27T17:11:25.619Z,25.32
2018-06-27T17:16:20.295Z,25.45
2018-06-27T17:21:15.036Z,25.21
2018-06-27T17:26:09.714Z,25.15
2018-06-27T17:31:04.575Z,25.20
2018-06-27T17:35:59.206Z,24.92
2018-06-27T17:40:53.859Z,24.79
2018-06-27T17:45:48.646Z,24.72
2018-06-27T17:50:43.271Z,24.62
2018-06-27T17:55:37.930Z,24.51
2018-06-27T18:00:32.540Z,24.38
2018-06-27T18:05:27.159Z,24.39
2018-06-27T18:10:21.730Z,24.28
2018-06-27T18:15:16.371Z,24.09
2018-06-27T18:20:10.999Z,24.30
2018-06-27T18:25:06.359Z,24.25
2018-06-27T18:30:00.980Z,24.33
2018-06-27T18:34:55.763Z,24.09
2018-06-27T18:39:50.383Z,23.77
2018-06-27T18:44:44.970Z,23.83
2018-06-27T18:49:40.548Z,23.55
2018-06-27T18:54:35.198Z,23.58
2018-06-27T18:59:29.859Z,23.66
2018-06-27T19:04:24.489Z,23.20
2018-06-27T19:09:19.206Z,23.33
2018-06-27T19:14:13.867Z,23.10
2018-06-27T19:19:08.502Z,23.04
2018-06-27T19:24:03.098Z,22.80
2018-06-27T19:28:57.747Z,22.74
2018-06-27T19:33:52.453Z,22.97
2018-06-27T19:38:47.120Z,22.83
2018-06-27T19:43:41.728Z,22.44
2018-06-27T19:48:36.345Z,22.56
2018-06-27T19:53:31.020Z,22.34
2018-06-27T19:58:25.627Z,22.58
2018-06-27T20:03:20.274Z,22.24
2018-06-27T20:08:15.116Z,21.91
2018-06-27T20:13:09.749Z,21.68
2018-06-27T20:18:04.398Z,21.33
2018-06-27T20:22:59.098Z,21.48
2018-06-27T20:27:53.456Z,21.48
2018-06-27T20:32:48.116Z,21.51
2018-06-27T20:37:42.751Z,21.68
2018-06-27T20:42:37.412Z,21.54
2018-06-27T20:47:32.083Z,21.66
2018-06-27T20:52:26.717Z,21.60
2018-06-27T20:57:21.327Z,21.55
2018-06-27T21:02:16.051Z,21.51
2018-06-27T21:07:10.651Z,21.54
2018-06-27T21:12:05.483Z,21.50
2018-06-27T21:17:00.145Z,21.60
2018-06-27T21:21:54.819Z,21.43
2018-06-27T21:26:49.508Z,21.37
2018-06-27T21:31:44.143Z,21.32
2018-06-27T21:36:38.805Z,21.38
2018-06-27T21:41:33.415Z,21.44
2018-06-27T21:46:28.043Z,21.25
2018-06-27T21:51:22.630Z,21.04
2018-06-27T21:56:17.266Z,21.25
2018-06-27T22:01:11.940Z,21.24
2018-06-27T22:06:06.754Z,21.15
2018-06-27T22:11:01.372Z,20.82
2018-06-27T22:15:56.010Z,20.85
2018-06-27T22:20:50.593Z,20.79
2018-06-27T22:25:45.208Z,20.79
2018-06-27T22:30:40.006Z,20.65
2018-06-27T22:35:34.625Z,20.47
2018-06-27T22:40:29.241Z,20.23
2018-06-27T22:45:23.826Z,20.06
2018-06-27T22:50:18.442Z,19.93
2018-06-27T22:55:13.071Z,19.85
2018-06-27T23:00:08.313Z,19.63
2018-06-27T23:05:02.865Z,19.42
2018-06-27T23:09:57.489Z,19.60
2018-06-27T23:14:52.088Z,19.40
2018-06-27T23:19:46.688Z,19.36
2018-06-27T23:24:41.270Z,19.32
2018-06-27T23:29:35.834Z,19.23
2018-06-27T23:34:30.434Z,19.23
2018-06-27T23:39:25.168Z,19.38
2018-06-27T23:44:19.920Z,18.96
2018-06-27T23:49:14.586Z,18.93
2018-06-27T23:54:09.255Z,19.01
2018-06-27T23:59:03.888Z,18.98
